Time;durP1;ratioP1;P1;durP2;ratioP2;P2;SDS_P1;SDS_P2;PMS_P1;PMS_P2;Temp;Humidity;BMP_temperature;BMP_pressure;BME280_temperature;BME280_humidity;BME280_pressure;Samples;Min_cycle;Max_cycle;Signal;HPM_P1;HPM_P2
2022/03/24 00:01:40;;;;;;;38.10;22.73;;;;;;;9.23;63.16;103114.72;5115037;28;20046;-78
2022/03/24 00:04:06;;;;;;;40.10;22.17;;;;;;;9.20;63.22;103122.59;5099397;28;20066;-78
2022/03/24 00:06:32;;;;;;;36.13;22.02;;;;;;;9.16;63.15;103118.19;5094056;28;20404;-78
2022/03/24 00:08:57;;;;;;;36.65;21.05;;;;;;;9.15;63.62;103121.69;5120793;27;20079;-78
2022/03/24 00:11:22;;;;;;;39.88;22.88;;;;;;;9.14;63.58;103116.47;5077254;28;20036;-78
2022/03/24 00:13:51;;;;;;;38.17;22.92;;;;;;;9.12;63.57;103118.22;5100491;28;20028;-78
2022/03/24 00:16:18;;;;;;;41.47;22.98;;;;;;;9.10;63.63;103123.44;5081318;27;20035;-78
2022/03/24 00:18:46;;;;;;;53.05;25.10;;;;;;;9.08;64.15;103114.72;5113307;27;20035;-78
2022/03/24 00:21:12;;;;;;;45.97;23.88;;;;;;;9.05;63.88;103121.69;5113400;28;20031;-78
2022/03/24 00:23:38;;;;;;;38.50;22.25;;;;;;;9.01;64.02;103126.88;5097503;28;20064;-78
2022/03/24 00:26:04;;;;;;;46.92;24.30;;;;;;;8.99;64.12;103117.31;5117601;28;20031;-78
2022/03/24 00:28:31;;;;;;;37.63;22.88;;;;;;;8.95;64.09;103119.03;5117545;27;20066;-78
2022/03/24 00:30:57;;;;;;;40.75;21.23;;;;;;;8.92;64.14;103115.56;5117116;28;20327;-78
2022/03/24 00:33:23;;;;;;;36.65;22.25;;;;;;;8.90;64.17;103118.16;5116099;27;20050;-78
2022/03/24 00:35:49;;;;;;;36.28;21.08;;;;;;;8.88;64.12;103116.38;5091830;27;20372;-78
2022/03/24 00:38:15;;;;;;;44.03;23.02;;;;;;;8.84;64.42;103121.63;5104190;28;20098;-78
2022/03/24 00:40:40;;;;;;;38.15;21.98;;;;;;;8.82;64.35;103117.25;5081847;28;20216;-78
2022/03/24 00:43:05;;;;;;;39.40;21.95;;;;;;;8.80;64.57;103121.59;5065756;28;20080;-78
2022/03/24 00:45:31;;;;;;;40.85;21.63;;;;;;;8.77;64.76;103113.78;5082326;28;20036;-78
2022/03/24 00:47:56;;;;;;;42.42;22.67;;;;;;;8.74;64.97;103113.75;5099361;28;20235;-78
2022/03/24 00:50:22;;;;;;;43.15;25.30;;;;;;;8.71;66.17;103111.13;5101288;28;20426;-78
2022/03/24 00:52:47;;;;;;;41.85;22.17;;;;;;;8.70;65.89;103105.03;5086718;27;20260;-78
2022/03/24 00:55:15;;;;;;;43.72;23.92;;;;;;;8.69;65.62;103110.25;5121260;27;20048;-78
2022/03/24 00:57:42;;;;;;;42.10;23.33;;;;;;;8.68;65.40;103106.78;5119707;27;20058;-78
2022/03/24 01:00:17;;;;;;;43.55;23.98;;;;;;;8.66;65.25;103103.28;5132754;27;20346;-78
2022/03/24 01:02:48;;;;;;;40.17;24.10;;;;;;;8.63;65.12;103106.75;5104025;28;20335;-78
2022/03/24 01:05:19;;;;;;;46.55;25.23;;;;;;;8.61;65.37;103097.16;5106116;27;20326;-78
2022/03/24 01:07:46;;;;;;;44.25;24.27;;;;;;;8.59;65.36;103094.53;5113810;28;20031;-78
2022/03/24 01:10:14;;;;;;;48.83;24.95;;;;;;;8.56;65.60;103089.28;5121652;27;20066;-78
2022/03/24 01:12:40;;;;;;;49.15;26.92;;;;;;;8.55;66.44;103084.06;5104221;28;20039;-78
2022/03/24 01:15:07;;;;;;;46.95;27.27;;;;;;;8.55;67.09;103089.28;5112200;27;20045;-78
2022/03/24 01:17:34;;;;;;;45.78;25.83;;;;;;;8.53;66.83;103086.69;5101554;28;20290;-78
2022/03/24 01:19:59;;;;;;;48.38;25.73;;;;;;;8.53;66.40;103085.81;5126532;27;20036;-78
2022/03/24 01:22:25;;;;;;;45.72;25.95;;;;;;;8.52;66.19;103087.56;5100042;28;20484;-78
2022/03/24 01:24:50;;;;;;;42.58;25.25;;;;;;;8.50;65.98;103086.69;5104450;28;20034;-78
2022/03/24 01:27:16;;;;;;;45.83;26.02;;;;;;;8.48;66.19;103085.81;5061322;28;20106;-78
2022/03/24 01:29:42;;;;;;;47.75;27.83;;;;;;;8.47;66.23;103086.66;5102953;27;20055;-78
2022/03/24 01:32:07;;;;;;;45.20;26.30;;;;;;;8.44;65.98;103082.31;5116590;28;20043;-78
2022/03/24 01:34:34;;;;;;;44.22;25.42;;;;;;;8.43;65.88;103077.06;5099511;28;20071;-78
2022/03/24 01:37:00;;;;;;;48.50;26.63;;;;;;;8.40;66.06;103066.56;5117386;28;20039;-78
2022/03/24 01:39:25;;;;;;;44.92;25.30;;;;;;;8.39;66.02;103075.28;5128260;27;20380;-78
2022/03/24 01:41:51;;;;;;;46.15;25.98;;;;;;;8.38;66.16;103070.91;5117172;28;20062;-78
2022/03/24 01:44:18;;;;;;;47.45;27.67;;;;;;;8.35;66.15;103071.78;5099435;27;20106;-78
2022/03/24 01:47:16;;;;;;;42.40;25.50;;;;;;;8.32;66.19;103063.06;5132424;27;20349;-78
2022/03/24 01:49:49;;;;;;;45.15;25.17;;;;;;;8.29;66.27;103061.31;5071132;27;20066;-78
2022/03/24 01:52:17;;;;;;;48.63;24.92;;;;;;;8.25;66.38;103070.84;5103621;28;20347;-78
2022/03/24 01:54:57;;;;;;;45.05;26.17;;;;;;;8.22;66.36;103065.66;5105179;28;20043;-78
2022/03/24 01:57:25;;;;;;;47.88;25.80;;;;;;;8.21;66.21;103058.66;5116536;28;20107;-78
2022/03/24 01:59:51;;;;;;;49.67;27.17;;;;;;;8.19;66.25;103063.00;5110471;27;20015;-78
2022/03/24 02:05:01;;;;;;;45.03;25.83;;;;;;;8.13;66.24;103060.38;5117703;27;20119;-78
2022/03/24 02:07:27;;;;;;;44.10;26.67;;;;;;;8.11;66.27;103062.09;5098214;28;20082;-78
2022/03/24 02:09:52;;;;;;;48.08;27.08;;;;;;;8.07;66.34;103058.59;5107019;27;20346;-78
2022/03/24 02:12:18;;;;;;;49.40;26.25;;;;;;;8.05;66.49;103062.94;5098064;28;20268;-78
2022/03/24 02:14:43;;;;;;;50.33;26.80;;;;;;;8.03;66.50;103058.56;5123666;27;20086;-78
2022/03/24 02:17:10;;;;;;;45.78;26.20;;;;;;;8.00;66.62;103055.94;5137823;27;20197;-78
2022/03/24 02:19:36;;;;;;;49.70;26.40;;;;;;;7.98;66.68;103058.53;5118326;27;20047;-78
2022/03/24 02:22:11;;;;;;;48.38;27.60;;;;;;;7.97;66.68;103056.81;5082925;28;20034;-78
2022/03/24 02:24:37;;;;;;;49.45;28.15;;;;;;;7.96;66.54;103049.81;5124708;27;20400;-78
2022/03/24 02:27:03;;;;;;;51.35;28.70;;;;;;;7.95;66.57;103058.53;5120178;27;20125;-78
2022/03/24 02:29:28;;;;;;;54.50;29.45;;;;;;;7.93;66.63;103057.66;5103446;28;20109;-78
2022/03/24 02:31:53;;;;;;;51.75;29.50;;;;;;;7.92;66.66;103057.66;5101675;28;20099;-77
2022/03/24 02:37:10;;;;;;;56.47;29.08;;;;;;;7.89;67.16;103058.47;5119813;27;20058;-78
2022/03/24 02:39:38;;;;;;;52.75;29.27;;;;;;;7.87;67.06;103057.59;5120889;27;20051;-78
2022/03/24 02:42:04;;;;;;;51.55;29.10;;;;;;;7.85;67.07;103054.97;5107532;28;20011;-78
2022/03/24 02:44:31;;;;;;;55.55;29.70;;;;;;;7.83;67.20;103054.09;5126008;27;20035;-78
2022/03/24 02:46:59;;;;;;;51.33;29.35;;;;;;;7.82;67.03;103054.97;5103131;28;20044;-78
2022/03/24 02:49:26;;;;;;;52.17;28.42;;;;;;;7.80;67.16;103055.81;5102677;27;20070;-78
2022/03/24 02:51:53;;;;;;;56.08;29.45;;;;;;;7.77;67.15;103051.47;5110185;28;20028;-78
2022/03/24 02:54:20;;;;;;;53.80;28.80;;;;;;;7.76;67.33;103057.53;5082270;28;21216;-78
2022/03/24 02:56:46;;;;;;;53.65;29.70;;;;;;;7.75;67.53;103058.41;5107824;28;20050;-78
2022/03/24 02:59:12;;;;;;;59.45;31.83;;;;;;;7.74;67.49;103056.66;5099339;28;20350;-78
2022/03/24 03:01:41;;;;;;;57.92;31.65;;;;;;;7.73;67.98;103052.31;5110638;28;20077;-78
2022/03/24 03:04:07;;;;;;;56.10;29.95;;;;;;;7.72;67.61;103055.78;5128438;27;20046;-78
2022/03/24 03:06:35;;;;;;;53.97;30.80;;;;;;;7.70;67.64;103049.69;5088607;28;20039;-78
2022/03/24 03:09:02;;;;;;;57.93;31.90;;;;;;;7.70;67.60;103057.50;5099531;28;20399;-78
2022/03/24 03:11:30;;;;;;;56.78;31.33;;;;;;;7.69;67.59;103053.13;5099894;28;20031;-78
2022/03/24 03:13:56;;;;;;;54.83;31.07;;;;;;;7.67;67.63;103052.25;5127980;28;20062;-78
2022/03/24 03:16:22;;;;;;;60.80;30.88;;;;;;;7.66;67.86;103051.41;5117211;28;20042;-78
2022/03/24 03:18:48;;;;;;;56.55;32.10;;;;;;;7.64;67.61;103053.13;5100339;28;20047;-78
2022/03/24 03:21:16;;;;;;;63.10;32.30;;;;;;;7.63;67.57;103050.50;5122788;28;20019;-78
2022/03/24 03:23:43;;;;;;;57.53;30.58;;;;;;;7.61;67.70;103050.47;5113698;28;20360;-78
2022/03/24 03:26:10;;;;;;;54.28;31.77;;;;;;;7.61;67.60;103054.84;5100538;28;20104;-78
2022/03/24 03:28:35;;;;;;;54.20;31.30;;;;;;;7.59;67.72;103054.81;5098380;28;20039;-78
2022/03/24 03:31:01;;;;;;;56.53;31.85;;;;;;;7.58;67.85;103050.44;5125651;28;20058;-78
2022/03/24 03:33:27;;;;;;;60.22;33.13;;;;;;;7.56;67.84;103046.09;5115224;28;20089;-78
2022/03/24 03:35:53;;;;;;;56.97;32.15;;;;;;;7.56;67.89;103046.09;5098398;28;20054;-78
2022/03/24 03:38:20;;;;;;;59.28;33.08;;;;;;;7.55;68.04;103046.94;5125634;28;20035;-78
2022/03/24 03:40:46;;;;;;;63.25;33.03;;;;;;;7.53;68.02;103046.06;5117663;28;20086;-78
2022/03/24 03:43:14;;;;;;;58.42;33.05;;;;;;;7.52;68.19;103044.34;5099744;28;20107;-78
2022/03/24 03:45:40;;;;;;;58.58;31.73;;;;;;;7.49;68.16;103045.19;5083947;28;20119;-77
2022/03/24 03:48:06;;;;;;;63.10;33.85;;;;;;;7.49;68.29;103048.69;5114247;28;20226;-78
2022/03/24 03:50:32;;;;;;;63.13;32.63;;;;;;;7.46;68.24;103048.66;5099511;28;20040;-78
2022/03/24 03:52:57;;;;;;;64.80;32.95;;;;;;;7.46;68.44;103048.66;5132375;28;20042;-78
2022/03/24 03:55:23;;;;;;;63.97;32.45;;;;;;;7.44;68.48;103046.88;5117660;28;20380;-78
2022/03/24 03:57:48;;;;;;;62.95;32.95;;;;;;;7.42;68.32;103041.66;5109977;28;20196;-78
2022/03/24 04:03:03;;;;;;;60.60;33.17;;;;;;;7.37;68.63;103040.75;5117529;28;20101;-78
2022/03/24 04:05:32;;;;;;;60.58;32.58;;;;;;;7.37;68.62;103047.69;5113087;28;20334;-78
2022/03/24 04:07:58;;;;;;;60.45;33.03;;;;;;;7.35;68.55;103049.41;5087715;28;20126;-78
2022/03/24 04:10:26;;;;;;;57.95;32.50;;;;;;;7.33;68.46;103048.53;5064312;28;20234;-78
2022/03/24 04:12:51;;;;;;;65.70;33.15;;;;;;;7.31;68.46;103045.91;5116622;28;20317;-78
2022/03/24 04:15:17;;;;;;;58.58;31.08;;;;;;;7.28;68.38;103043.28;5103079;28;20047;-78
2022/03/24 04:17:43;;;;;;;58.67;32.75;;;;;;;7.27;68.55;103049.34;5106621;28;20049;-78
2022/03/24 04:20:10;;;;;;;52.17;30.55;;;;;;;7.24;68.62;103050.22;5111910;27;20039;-78
2022/03/24 04:22:36;;;;;;;51.88;29.27;;;;;;;7.21;68.65;103054.53;5102472;27;20378;-78
2022/03/24 04:25:02;;;;;;;51.55;28.85;;;;;;;7.17;68.80;103048.41;5119896;27;20031;-78
2022/03/24 04:27:28;;;;;;;53.78;29.42;;;;;;;7.16;68.77;103054.47;5130051;27;20063;-78
2022/03/24 04:29:53;;;;;;;51.47;29.08;;;;;;;7.14;68.89;103050.09;5101345;27;20371;-78
2022/03/24 04:32:18;;;;;;;59.63;30.63;;;;;;;7.11;68.68;103051.84;5084200;28;20063;-78
2022/03/24 04:34:45;;;;;;;57.55;30.48;;;;;;;7.09;68.68;103052.66;5101868;28;20043;-78
2022/03/24 04:37:11;;;;;;;57.45;31.45;;;;;;;7.07;68.83;103052.63;5121695;27;20051;-78
2022/03/24 04:39:36;;;;;;;55.20;29.45;;;;;;;7.04;68.96;103047.44;5138691;27;20128;-78
2022/03/24 04:42:02;;;;;;;56.72;31.38;;;;;;;7.04;68.76;103047.44;5102862;28;20043;-78
2022/03/24 04:44:27;;;;;;;59.72;31.92;;;;;;;7.03;68.75;103047.41;5111851;27;20122;-78
2022/03/24 04:46:53;;;;;;;59.28;31.40;;;;;;;7.01;68.82;103057.81;5117841;27;20373;-78
2022/03/24 04:49:18;;;;;;;49.72;29.25;;;;;;;6.98;68.99;103060.38;5104156;28;20055;-78
2022/03/24 04:51:44;;;;;;;52.90;29.33;;;;;;;6.94;68.84;103058.59;5103467;28;20032;-78
2022/03/24 04:54:11;;;;;;;51.05;28.55;;;;;;;6.91;69.21;103059.47;5099758;28;20295;-78
2022/03/24 04:56:36;;;;;;;56.88;29.38;;;;;;;6.88;69.15;103062.03;5101004;28;20054;-78
2022/03/24 04:59:02;;;;;;;53.80;30.25;;;;;;;6.86;69.20;103055.94;5102037;28;20030;-78
2022/03/24 05:01:27;;;;;;;54.10;31.45;;;;;;;6.85;68.79;103054.16;5100945;28;20043;-77
2022/03/24 05:03:52;;;;;;;58.90;30.63;;;;;;;6.82;68.97;103054.16;5130383;27;20027;-77
2022/03/24 05:06:18;;;;;;;60.92;30.98;;;;;;;6.81;69.21;103064.56;5123225;27;20069;-78
2022/03/24 05:08:44;;;;;;;58.10;30.55;;;;;;;6.78;69.22;103060.16;5081453;28;20280;-78
2022/03/24 05:11:09;;;;;;;53.25;30.23;;;;;;;6.78;69.39;103061.91;5102243;28;20043;-78
2022/03/24 05:13:34;;;;;;;51.90;30.55;;;;;;;6.75;69.58;103064.47;5115172;27;20039;-78
2022/03/24 05:16:00;;;;;;;58.72;31.30;;;;;;;6.73;69.46;103059.25;5083774;28;20076;-78
2022/03/24 05:18:25;;;;;;;52.28;29.02;;;;;;;6.72;69.28;103071.41;5100600;28;20051;-79
2022/03/24 05:20:51;;;;;;;55.00;30.65;;;;;;;6.70;69.13;103078.31;5119194;28;20035;-78
2022/03/24 05:23:17;;;;;;;58.05;29.80;;;;;;;6.68;69.26;103079.16;5103338;27;20438;-78
2022/03/24 05:25:44;;;;;;;61.13;31.63;;;;;;;6.67;69.54;103077.41;5117080;27;20023;-78
2022/03/24 05:28:10;;;;;;;54.70;28.88;;;;;;;6.65;69.80;103074.78;5106500;28;20031;-78
2022/03/24 05:30:36;;;;;;;54.72;29.55;;;;;;;6.65;69.70;103073.91;5099812;28;20134;-78
2022/03/24 05:33:02;;;;;;;54.00;29.98;;;;;;;6.63;69.69;103076.50;5082359;28;20027;-77
2022/03/24 05:35:29;;;;;;;53.95;30.05;;;;;;;6.62;69.71;103079.09;5112398;28;20059;-78
2022/03/24 05:37:55;;;;;;;52.55;28.50;;;;;;;6.61;69.72;103079.97;5117355;28;20043;-79
2022/03/24 05:40:20;;;;;;;51.75;29.05;;;;;;;6.60;69.71;103075.59;5115996;28;20070;-78
2022/03/24 05:42:46;;;;;;;53.30;29.23;;;;;;;6.58;69.67;103077.31;5098697;28;20027;-78
2022/03/24 05:45:11;;;;;;;54.05;27.67;;;;;;;6.55;69.65;103083.38;5084982;28;20125;-77
2022/03/24 05:47:37;;;;;;;49.47;27.60;;;;;;;6.52;69.64;103086.78;5116030;28;20035;-78
2022/03/24 05:50:03;;;;;;;56.17;30.27;;;;;;;6.51;69.80;103082.47;5117641;27;20361;-77
2022/03/24 05:52:28;;;;;;;51.58;28.08;;;;;;;6.50;69.81;103082.44;5116296;27;20038;-78
2022/03/24 05:54:54;;;;;;;53.45;27.90;;;;;;;6.47;69.93;103083.25;5108339;28;20110;-78
2022/03/24 05:57:20;;;;;;;60.53;30.55;;;;;;;6.47;69.93;103088.44;5102153;28;20445;-78
2022/03/24 05:59:45;;;;;;;50.78;27.52;;;;;;;6.45;70.07;103084.97;5097367;28;20038;-78
2022/03/24 06:02:13;;;;;;;53.65;29.80;;;;;;;6.45;70.01;103081.50;5120644;27;20357;-78
2022/03/24 06:04:41;;;;;;;57.15;28.30;;;;;;;6.43;70.07;103081.47;5105262;28;20214;-78
2022/03/24 06:07:07;;;;;;;55.00;29.50;;;;;;;6.43;70.38;103080.59;5110685;27;20076;-78
2022/03/24 06:09:34;;;;;;;54.55;27.13;;;;;;;6.43;70.03;103076.25;5098920;28;20035;-78
2022/03/24 06:12:00;;;;;;;54.65;28.05;;;;;;;6.43;70.05;103080.59;5107823;27;20254;-78
2022/03/24 06:14:26;;;;;;;57.78;29.17;;;;;;;6.43;70.19;103080.59;5105820;28;20039;-78
2022/03/24 06:16:51;;;;;;;54.90;28.42;;;;;;;6.44;70.04;103077.13;5089161;27;20099;-78
2022/03/24 06:19:18;;;;;;;53.90;28.67;;;;;;;6.44;70.11;103083.22;5112715;28;20032;-78
2022/03/24 06:21:44;;;;;;;55.72;27.33;;;;;;;6.43;70.14;103084.06;5100076;28;20031;-78
2022/03/24 06:24:10;;;;;;;54.60;27.38;;;;;;;6.43;70.16;103081.47;5081518;28;20423;-78
2022/03/24 06:26:35;;;;;;;61.00;29.25;;;;;;;6.42;70.26;103077.13;5102086;27;20035;-78
2022/03/24 06:29:02;;;;;;;53.70;27.42;;;;;;;6.43;70.17;103085.81;5107520;27;20023;-78
2022/03/24 06:31:29;;;;;;;63.40;28.02;;;;;;;6.42;70.39;103078.84;5098329;27;20236;-78
2022/03/24 06:33:54;;;;;;;57.38;27.38;;;;;;;6.42;70.12;103084.03;5102889;27;20110;-78
2022/03/24 06:36:20;;;;;;;58.22;27.58;;;;;;;6.43;70.52;103086.69;5126206;27;20107;-78
2022/03/24 06:38:45;;;;;;;53.70;27.70;;;;;;;6.45;70.47;103089.31;5126363;27;20261;-78
2022/03/24 06:41:10;;;;;;;53.45;26.85;;;;;;;6.46;70.51;103097.13;5122631;27;20130;-78
2022/03/24 06:43:36;;;;;;;55.63;28.17;;;;;;;6.47;70.48;103085.84;5113994;27;20050;-78
2022/03/24 06:46:04;;;;;;;53.20;27.63;;;;;;;6.49;70.46;103088.47;5100744;28;20413;-78
2022/03/24 06:48:30;;;;;;;59.25;28.23;;;;;;;6.51;70.55;103092.88;5098925;28;20412;-78
2022/03/24 06:50:55;;;;;;;52.50;27.60;;;;;;;6.53;70.40;103095.47;5116048;28;20340;-78
2022/03/24 06:53:20;;;;;;;56.05;27.35;;;;;;;6.54;70.54;103089.41;5094677;27;20058;-78
2022/03/24 06:55:46;;;;;;;49.08;23.88;;;;;;;6.56;70.60;103084.22;5098195;28;20352;-78
2022/03/24 06:58:11;;;;;;;46.10;23.63;;;;;;;6.58;70.42;103093.78;5104677;28;20043;-78
2022/03/24 07:00:39;;;;;;;43.03;23.58;;;;;;;6.60;70.19;103089.47;5096948;28;20063;-79
2022/03/24 07:03:04;;;;;;;37.67;21.23;;;;;;;6.63;70.14;103088.66;5113196;28;20043;-78
2022/03/24 07:05:30;;;;;;;38.33;22.27;;;;;;;6.64;70.22;103086.06;5080957;27;20376;-78
2022/03/24 07:07:55;;;;;;;41.33;23.80;;;;;;;6.67;70.12;103086.09;5097371;28;20431;-78
2022/03/24 07:10:21;;;;;;;43.63;22.23;;;;;;;6.71;70.27;103084.41;5090993;28;20351;-78
2022/03/24 07:12:48;;;;;;;40.13;21.98;;;;;;;6.73;70.44;103080.97;5097601;28;20047;-78
2022/03/24 07:15:14;;;;;;;40.97;22.42;;;;;;;6.77;70.70;103087.09;5097653;28;20038;-78
2022/03/24 07:17:39;;;;;;;40.72;22.20;;;;;;;6.79;70.79;103085.38;5115294;28;20032;-78
2022/03/24 07:20:06;;;;;;;38.50;21.25;;;;;;;6.84;70.67;103090.59;5095969;28;20058;-78
2022/03/24 07:22:36;;;;;;;44.55;23.50;;;;;;;6.87;70.83;103091.53;5114477;28;20097;-78
2022/03/24 07:25:02;;;;;;;44.97;22.85;;;;;;;6.91;71.18;103093.31;5119397;28;20039;-78
2022/03/24 07:27:29;;;;;;;45.40;24.77;;;;;;;6.94;71.03;103095.06;5095916;28;20032;-78
2022/03/24 07:29:54;;;;;;;39.20;21.65;;;;;;;6.98;71.36;103101.19;5118012;28;20039;-78
2022/03/24 07:32:20;;;;;;;40.17;22.67;;;;;;;7.01;71.37;103096.03;5092328;28;20549;-78
2022/03/24 07:34:46;;;;;;;40.75;23.10;;;;;;;7.04;71.41;103102.13;5110932;28;20106;-78
2022/03/24 07:37:11;;;;;;;44.65;25.10;;;;;;;7.07;71.69;103102.16;5094441;28;20054;-78
2022/03/24 07:39:37;;;;;;;47.83;25.83;;;;;;;7.11;71.98;103105.66;5094563;28;20031;-78
2022/03/24 07:42:03;;;;;;;41.58;24.50;;;;;;;7.15;72.19;103093.53;5116471;28;20035;-78
2022/03/24 07:44:28;;;;;;;51.65;25.95;;;;;;;7.20;72.43;103100.53;5095607;28;20247;-78
2022/03/24 07:46:53;;;;;;;77.05;38.67;;;;;;;7.24;73.94;103101.44;5081610;28;20039;-78
2022/03/24 07:49:19;;;;;;;55.50;29.55;;;;;;;7.31;74.64;103100.63;5097843;27;20034;-78
2022/03/24 07:51:45;;;;;;;51.72;28.83;;;;;;;7.38;74.96;103104.19;5091994;27;20110;-78
2022/03/24 07:54:11;;;;;;;57.83;30.67;;;;;;;7.43;74.98;103103.38;5101117;27;20032;-78
2022/03/24 07:56:37;;;;;;;52.03;28.80;;;;;;;7.48;75.78;103113.84;5110587;27;20043;-78
2022/03/24 07:59:04;;;;;;;65.50;34.70;;;;;;;7.54;75.96;103115.63;5108953;27;20046;-78
2022/03/24 08:01:32;;;;;;;50.50;29.23;;;;;;;7.57;76.13;103111.31;5092723;27;20259;-78
2022/03/24 08:04:00;;;;;;;51.45;30.33;;;;;;;7.61;76.31;103117.44;5131399;27;20195;-78
2022/03/24 08:06:28;;;;;;;57.20;29.58;;;;;;;7.63;76.43;103127.00;5092841;28;20022;-79
2022/03/24 08:08:53;;;;;;;51.67;28.83;;;;;;;7.67;76.32;103127.91;5100300;28;20328;-78
2022/03/24 08:11:19;;;;;;;60.08;28.80;;;;;;;7.70;76.42;103120.09;5116617;27;20043;-78
2022/03/24 08:13:47;;;;;;;68.20;36.85;;;;;;;7.72;76.88;103121.00;5084509;28;20202;-78
2022/03/24 08:16:14;;;;;;;56.80;29.70;;;;;;;7.81;76.39;103121.06;5117977;27;20094;-78
2022/03/24 08:18:39;;;;;;;46.80;27.80;;;;;;;7.87;76.38;103122.84;5125785;27;20068;-78
2022/03/24 08:21:05;;;;;;;58.65;32.15;;;;;;;7.95;75.96;103122.88;5100896;28;20039;-78
2022/03/24 08:23:33;;;;;;;63.50;33.10;;;;;;;8.01;75.71;103130.75;5082573;27;20054;-78
2022/03/24 08:25:59;;;;;;;61.40;30.95;;;;;;;8.03;75.55;103127.28;5069032;28;20051;-78
2022/03/24 08:28:24;;;;;;;65.75;32.85;;;;;;;8.11;75.23;103132.56;5121611;27;20035;-78
2022/03/24 08:30:49;;;;;;;46.83;26.88;;;;;;;8.17;74.71;103131.75;5124778;27;20028;-78
2022/03/24 08:33:16;;;;;;;45.63;26.33;;;;;;;8.23;73.94;103132.63;5091719;28;20125;-78
2022/03/24 08:35:42;;;;;;;49.80;26.27;;;;;;;8.32;72.60;103134.44;5122570;27;20898;-78
2022/03/24 08:38:08;;;;;;;44.13;24.52;;;;;;;8.40;70.80;103130.13;5098712;28;20032;-78
2022/03/24 08:40:35;;;;;;;42.65;23.92;;;;;;;8.53;69.23;103132.81;5094060;28;20357;-79
2022/03/24 08:43:00;;;;;;;57.30;28.70;;;;;;;8.63;68.27;103143.31;5124385;27;20045;-79
2022/03/24 08:45:26;;;;;;;54.03;24.35;;;;;;;8.74;66.62;103137.25;5078130;27;20106;-78
2022/03/24 08:47:53;;;;;;;46.92;23.52;;;;;;;8.80;66.33;103142.50;5112367;27;20362;-78
2022/03/24 08:50:19;;;;;;;53.70;23.55;;;;;;;8.87;64.50;103144.28;5092586;28;20040;-79
2022/03/24 08:52:45;;;;;;;59.92;26.98;;;;;;;8.93;64.65;103135.56;5122857;27;20055;-79
2022/03/24 08:55:13;;;;;;;41.45;24.60;;;;;;;8.96;64.73;103141.69;5088749;28;20347;-79
2022/03/24 08:57:39;;;;;;;47.83;24.33;;;;;;;9.05;63.46;103146.06;5104248;27;20281;-79
2022/03/24 09:00:12;;;;;;;37.33;21.77;;;;;;;9.15;62.52;103142.63;5111500;27;20065;-79
2022/03/24 09:02:39;;;;;;;42.97;22.92;;;;;;;9.23;61.85;103146.09;5111402;27;20097;-79
2022/03/24 09:05:05;;;;;;;39.92;23.23;;;;;;;9.29;62.21;103147.00;5127236;27;20039;-79
2022/03/24 09:07:31;;;;;;;48.20;22.92;;;;;;;9.35;62.42;103149.59;5113410;28;20136;-79
2022/03/24 09:09:56;;;;;;;42.25;21.55;;;;;;;9.40;62.48;103154.00;5123937;27;20031;-79
2022/03/24 09:12:22;;;;;;;36.38;21.23;;;;;;;9.45;62.45;103147.88;5099329;28;20133;-79
2022/03/24 09:14:47;;;;;;;39.08;21.05;;;;;;;9.52;61.26;103149.63;5100546;27;20306;-79
2022/03/24 09:17:12;;;;;;;45.90;21.95;;;;;;;9.63;60.72;103147.91;5123516;27;20039;-78
2022/03/24 09:19:38;;;;;;;30.25;19.30;;;;;;;9.74;60.09;103161.84;5111755;27;20114;-79
2022/03/24 09:22:08;;;;;;;44.08;21.25;;;;;;;9.82;60.12;103156.59;5103125;27;20040;-78
2022/03/24 09:24:34;;;;;;;38.22;21.60;;;;;;;9.84;59.94;103159.22;5116141;27;20101;-79
2022/03/24 09:26:59;;;;;;;34.85;19.90;;;;;;;9.91;59.71;103153.97;5110348;28;20059;-79
2022/03/24 09:29:25;;;;;;;42.97;21.88;;;;;;;10.02;57.91;103153.97;5122547;27;20236;-79
2022/03/24 09:31:50;;;;;;;42.47;21.63;;;;;;;10.12;57.08;103160.94;5108965;27;20054;-79
2022/03/24 09:34:17;;;;;;;38.13;22.45;;;;;;;10.23;55.80;103162.69;5091239;27;20035;-79
2022/03/24 09:36:43;;;;;;;37.67;21.40;;;;;;;10.28;55.79;103159.16;5103909;28;20024;-79
2022/03/24 09:39:09;;;;;;;32.97;19.55;;;;;;;10.35;54.97;103158.31;5092953;28;20271;-79
2022/03/24 09:41:36;;;;;;;37.05;19.02;;;;;;;10.43;53.86;103155.66;5082381;28;20227;-79
2022/03/24 09:44:03;;;;;;;45.97;20.65;;;;;;;10.51;53.66;103146.03;5103291;28;20036;-79
2022/03/24 09:46:29;;;;;;;33.72;19.30;;;;;;;10.62;52.91;103147.72;5094044;28;20107;-79
2022/03/24 09:48:55;;;;;;;37.03;20.48;;;;;;;10.76;52.68;103148.53;5108158;27;20063;-79
2022/03/24 09:51:26;;;;;;;33.65;21.13;;;;;;;10.86;52.87;103147.63;5076093;28;20107;-79
2022/03/24 09:53:53;;;;;;;31.25;19.33;;;;;;;10.92;53.38;103147.59;5093146;27;20026;-79
2022/03/24 09:56:19;;;;;;;32.25;18.63;;;;;;;10.94;53.67;103144.97;5089153;28;20347;-79
2022/03/24 09:58:47;;;;;;;25.58;17.50;;;;;;;11.07;51.13;103141.38;5111286;27;20039;-79
2022/03/24 10:01:13;;;;;;;28.07;17.37;;;;;;;11.13;51.76;103140.47;5104004;27;20062;-79
2022/03/24 10:03:39;;;;;;;33.08;18.83;;;;;;;11.21;50.49;103145.69;5103322;27;20035;-79
2022/03/24 10:06:09;;;;;;;33.72;18.65;;;;;;;11.36;50.25;103144.72;5073660;28;20063;-79
2022/03/24 10:08:36;;;;;;;33.15;16.95;;;;;;;11.46;48.75;103147.25;5111791;27;20058;-79
2022/03/24 10:11:09;;;;;;;28.15;17.15;;;;;;;11.58;48.31;103158.53;5104319;27;20071;-79
2022/03/24 10:13:46;;;;;;;27.00;17.58;;;;;;;11.69;47.71;103152.31;5094530;27;20244;-79
2022/03/24 10:16:34;;;;;;;28.35;16.88;;;;;;;11.78;48.71;103145.25;5106355;28;20460;-79
2022/03/24 10:19:07;;;;;;;31.80;18.35;;;;;;;11.84;48.71;103148.69;5097134;27;20417;-79
2022/03/24 10:21:35;;;;;;;35.30;19.63;;;;;;;11.93;50.38;103142.50;5113854;27;20034;-79
2022/03/24 10:24:21;;;;;;;31.92;18.23;;;;;;;12.00;50.24;103145.94;5124236;27;20035;-79
2022/03/24 10:26:49;;;;;;;33.78;18.85;;;;;;;12.05;50.31;103145.00;5092873;28;20028;-79
2022/03/24 10:29:20;;;;;;;29.75;18.90;;;;;;;12.19;46.49;103141.38;5088015;27;20212;-79
2022/03/24 10:31:52;;;;;;;23.40;15.60;;;;;;;12.26;46.57;103143.03;5110271;27;20027;-79
2022/03/24 10:34:36;;;;;;;28.73;17.05;;;;;;;12.38;45.87;103140.28;5105660;28;20055;-79
2022/03/24 10:37:07;;;;;;;23.23;16.08;;;;;;;12.48;45.54;103147.16;5107403;27;20039;-79
2022/03/24 10:39:37;;;;;;;26.70;16.17;;;;;;;12.56;46.33;103147.06;5099534;27;20042;-80
2022/03/24 10:42:19;;;;;;;24.60;14.43;;;;;;;12.62;44.47;103146.13;5083685;27;20023;-79
2022/03/24 10:45:21;;;;;;;26.77;15.68;;;;;;;12.62;45.57;103140.88;5101605;28;20036;-79
2022/03/24 10:47:55;;;;;;;21.63;14.27;;;;;;;12.67;44.55;103144.31;5035150;28;20041;-79
2022/03/24 10:50:20;;;;;;;28.23;14.57;;;;;;;12.69;42.69;103145.16;5104516;27;20074;-79
2022/03/24 10:52:46;;;;;;;23.73;13.05;;;;;;;12.69;43.93;103147.78;5098312;27;20050;-79
2022/03/24 10:55:12;;;;;;;22.73;13.60;;;;;;;12.70;44.51;103146.03;5121027;27;20039;-79
2022/03/24 10:57:39;;;;;;;27.48;14.43;;;;;;;12.72;44.14;103139.88;5100383;27;20102;-79
2022/03/24 11:00:04;;;;;;;44.83;18.17;;;;;;;12.76;44.50;103138.94;5112616;27;20062;-79
2022/03/24 11:02:31;;;;;;;28.40;16.10;;;;;;;12.83;45.15;103139.72;5112750;27;20327;-79
2022/03/24 11:05:02;;;;;;;28.73;15.90;;;;;;;12.95;45.56;103143.94;5104279;28;20036;-79
2022/03/24 11:07:28;;;;;;;36.60;18.70;;;;;;;13.00;45.34;103137.72;5108796;28;20099;-79
2022/03/24 11:09:53;;;;;;;30.50;16.35;;;;;;;13.04;45.32;103138.53;5123654;27;20251;-79
2022/03/24 11:12:32;;;;;;;27.42;15.20;;;;;;;13.10;45.37;103138.47;5111484;28;20042;-79
2022/03/24 11:14:59;;;;;;;25.02;16.20;;;;;;;13.17;44.46;103134.84;5090343;28;20044;-79
2022/03/24 11:17:26;;;;;;;28.20;16.13;;;;;;;13.20;44.56;103136.56;5105873;28;20420;-79
2022/03/24 11:20:02;;;;;;;32.85;16.50;;;;;;;13.23;44.91;103129.50;5101782;28;20067;-79
2022/03/24 11:22:57;;;;;;;34.72;18.88;;;;;;;13.31;46.62;103125.91;5114650;28;20034;-79
2022/03/24 11:25:25;;;;;;;28.48;17.52;;;;;;;13.39;44.87;103129.31;5100504;28;20035;-79